sensor_id;sensor_type;location;lat;lon;timestamp;P1;P2;P0
72031;PMS5003;49185;42.320;23.198;2024-01-25T00:01:57;2624.00;2624.00;2624.00
72031;PMS5003;49185;42.320;23.198;2024-01-25T00:04:23;2620.67;2620.67;2620.67
72031;PMS5003;49185;42.320;23.198;2024-01-25T00:06:48;2620.67;2620.67;2620.67
72031;PMS5003;49185;42.320;23.198;2024-01-25T00:09:13;2624.00;2624.00;2624.00
72031;PMS5003;49185;42.320;23.198;2024-01-25T00:11:39;2626.67;2626.67;2626.67
72031;PMS5003;49185;42.320;23.198;2024-01-25T00:14:04;2634.00;2634.00;2634.00
72031;PMS5003;49185;42.320;23.198;2024-01-25T00:16:30;2624.00;2624.00;2624.00
72031;PMS5003;49185;42.320;23.198;2024-01-25T00:18:55;2636.67;2636.67;2636.67
72031;PMS5003;49185;42.320;23.198;2024-01-25T00:21:20;2627.67;2627.67;2627.67
72031;PMS5003;49185;42.320;23.198;2024-01-25T00:23:46;2627.67;2627.67;2627.67
72031;PMS5003;49185;42.320;23.198;2024-01-25T00:26:12;2643.00;2643.00;2643.00
72031;PMS5003;49185;42.320;23.198;2024-01-25T00:28:38;2641.50;2641.50;2641.50
72031;PMS5003;49185;42.320;23.198;2024-01-25T00:31:03;2641.00;2641.00;2641.00
72031;PMS5003;49185;42.320;23.198;2024-01-25T00:33:29;2646.50;2646.50;2646.50
72031;PMS5003;49185;42.320;23.198;2024-01-25T00:35:54;2649.67;2649.67;2649.67
72031;PMS5003;49185;42.320;23.198;2024-01-25T00:38:20;2666.67;2666.67;2666.67
72031;PMS5003;49185;42.320;23.198;2024-01-25T00:40:45;2668.50;2668.50;2668.50
72031;PMS5003;49185;42.320;23.198;2024-01-25T00:43:11;2665.00;2665.00;2665.00
72031;PMS5003;49185;42.320;23.198;2024-01-25T00:45:37;2668.50;2668.50;2668.50
72031;PMS5003;49185;42.320;23.198;2024-01-25T00:48:03;2673.50;2673.50;2673.50
72031;PMS5003;49185;42.320;23.198;2024-01-25T00:50:29;2687.50;2687.50;2687.50
72031;PMS5003;49185;42.320;23.198;2024-01-25T00:52:54;2668.00;2668.00;2668.00
72031;PMS5003;49185;42.320;23.198;2024-01-25T00:55:20;2666.67;2666.67;2666.67
72031;PMS5003;49185;42.320;23.198;2024-01-25T00:57:46;2673.50;2673.50;2673.50
72031;PMS5003;49185;42.320;23.198;2024-01-25T01:00:12;2680.67;2680.67;2680.67
72031;PMS5003;49185;42.320;23.198;2024-01-25T01:02:42;2679.00;2679.00;2679.00
72031;PMS5003;49185;42.320;23.198;2024-01-25T01:05:09;2679.00;2679.00;2679.00
72031;PMS5003;49185;42.320;23.198;2024-01-25T01:07:35;2694.50;2694.50;2694.50
72031;PMS5003;49185;42.320;23.198;2024-01-25T01:10:01;2689.00;2689.00;2689.00
72031;PMS5003;49185;42.320;23.198;2024-01-25T01:12:26;2684.00;2684.00;2684.00
72031;PMS5003;49185;42.320;23.198;2024-01-25T01:14:52;2677.00;2677.00;2677.00
72031;PMS5003;49185;42.320;23.198;2024-01-25T01:17:17;2664.67;2664.67;2664.67
72031;PMS5003;49185;42.320;23.198;2024-01-25T01:19:43;2688.33;2688.33;2688.33
72031;PMS5003;49185;42.320;23.198;2024-01-25T01:22:08;2678.00;2678.00;2678.00
72031;PMS5003;49185;42.320;23.198;2024-01-25T01:24:33;2666.67;2666.67;2666.67
72031;PMS5003;49185;42.320;23.198;2024-01-25T01:26:59;2654.00;2654.00;2654.00
72031;PMS5003;49185;42.320;23.198;2024-01-25T01:29:24;2649.67;2649.67;2649.67
72031;PMS5003;49185;42.320;23.198;2024-01-25T01:31:49;2658.00;2658.00;2658.00
72031;PMS5003;49185;42.320;23.198;2024-01-25T01:34:15;2644.00;2644.00;2644.00
72031;PMS5003;49185;42.320;23.198;2024-01-25T01:36:40;2651.00;2651.00;2651.00
72031;PMS5003;49185;42.320;23.198;2024-01-25T01:39:05;2636.67;2636.67;2636.67
72031;PMS5003;49185;42.320;23.198;2024-01-25T01:41:31;2629.67;2629.67;2629.67
72031;PMS5003;49185;42.320;23.198;2024-01-25T01:43:57;2641.50;2641.50;2641.50
72031;PMS5003;49185;42.320;23.198;2024-01-25T01:48:54;2638.00;2638.00;2638.00
72031;PMS5003;49185;42.320;23.198;2024-01-25T01:51:19;2637.67;2637.67;2637.67
72031;PMS5003;49185;42.320;23.198;2024-01-25T01:53:45;2645.00;2645.00;2645.00
72031;PMS5003;49185;42.320;23.198;2024-01-25T01:56:11;2645.00;2645.00;2645.00
72031;PMS5003;49185;42.320;23.198;2024-01-25T01:58:36;2654.00;2654.00;2654.00
72031;PMS5003;49185;42.320;23.198;2024-01-25T02:01:03;2665.00;2665.00;2665.00
72031;PMS5003;49185;42.320;23.198;2024-01-25T02:03:29;2656.50;2656.50;2656.50
72031;PMS5003;49185;42.320;23.198;2024-01-25T02:05:55;2668.00;2668.00;2668.00
72031;PMS5003;49185;42.320;23.198;2024-01-25T02:08:21;2662.00;2662.00;2662.00
72031;PMS5003;49185;42.320;23.198;2024-01-25T02:10:46;2653.00;2653.00;2653.00
72031;PMS5003;49185;42.320;23.198;2024-01-25T02:13:12;2651.00;2651.00;2651.00
72031;PMS5003;49185;42.320;23.198;2024-01-25T02:15:37;2659.00;2659.00;2659.00
72031;PMS5003;49185;42.320;23.198;2024-01-25T02:18:02;2651.00;2651.00;2651.00
72031;PMS5003;49185;42.320;23.198;2024-01-25T02:20:28;2651.00;2651.00;2651.00
72031;PMS5003;49185;42.320;23.198;2024-01-25T02:22:53;2661.00;2661.00;2661.00
72031;PMS5003;49185;42.320;23.198;2024-01-25T02:25:19;2666.67;2666.67;2666.67
72031;PMS5003;49185;42.320;23.198;2024-01-25T02:27:44;2653.00;2653.00;2653.00
72031;PMS5003;49185;42.320;23.198;2024-01-25T02:30:10;2647.67;2647.67;2647.67
72031;PMS5003;49185;42.320;23.198;2024-01-25T02:32:35;2651.00;2651.00;2651.00
72031;PMS5003;49185;42.320;23.198;2024-01-25T02:35:01;2666.67;2666.67;2666.67
72031;PMS5003;49185;42.320;23.198;2024-01-25T02:37:26;2656.67;2656.67;2656.67
72031;PMS5003;49185;42.320;23.198;2024-01-25T02:39:51;2658.00;2658.00;2658.00
72031;PMS5003;49185;42.320;23.198;2024-01-25T02:42:18;2663.50;2663.50;2663.50
72031;PMS5003;49185;42.320;23.198;2024-01-25T02:44:43;2671.00;2671.00;2671.00
72031;PMS5003;49185;42.320;23.198;2024-01-25T02:47:09;2654.00;2654.00;2654.00
72031;PMS5003;49185;42.320;23.198;2024-01-25T02:49:34;2673.50;2673.50;2673.50
72031;PMS5003;49185;42.320;23.198;2024-01-25T02:52:00;2668.00;2668.00;2668.00
72031;PMS5003;49185;42.320;23.198;2024-01-25T02:54:25;2670.00;2670.00;2670.00
72031;PMS5003;49185;42.320;23.198;2024-01-25T02:56:51;2677.00;2677.00;2677.00
72031;PMS5003;49185;42.320;23.198;2024-01-25T02:59:16;2675.00;2675.00;2675.00
72031;PMS5003;49185;42.320;23.198;2024-01-25T03:01:42;2664.67;2664.67;2664.67
72031;PMS5003;49185;42.320;23.198;2024-01-25T03:04:08;2680.50;2680.50;2680.50
72031;PMS5003;49185;42.320;23.198;2024-01-25T03:06:34;2670.00;2670.00;2670.00
72031;PMS5003;49185;42.320;23.198;2024-01-25T03:08:59;2670.00;2670.00;2670.00
72031;PMS5003;49185;42.320;23.198;2024-01-25T03:11:24;2671.00;2671.00;2671.00
72031;PMS5003;49185;42.320;23.198;2024-01-25T03:13:50;2671.00;2671.00;2671.00
72031;PMS5003;49185;42.320;23.198;2024-01-25T03:16:15;2675.00;2675.00;2675.00
72031;PMS5003;49185;42.320;23.198;2024-01-25T03:18:41;2661.00;2661.00;2661.00
72031;PMS5003;49185;42.320;23.198;2024-01-25T03:21:06;2671.00;2671.00;2671.00
72031;PMS5003;49185;42.320;23.198;2024-01-25T03:23:31;2661.00;2661.00;2661.00
72031;PMS5003;49185;42.320;23.198;2024-01-25T03:25:57;2664.67;2664.67;2664.67
72031;PMS5003;49185;42.320;23.198;2024-01-25T03:28:22;2664.67;2664.67;2664.67
72031;PMS5003;49185;42.320;23.198;2024-01-25T03:30:47;2664.67;2664.67;2664.67
72031;PMS5003;49185;42.320;23.198;2024-01-25T03:33:13;2678.00;2678.00;2678.00
72031;PMS5003;49185;42.320;23.198;2024-01-25T03:35:38;2668.00;2668.00;2668.00
72031;PMS5003;49185;42.320;23.198;2024-01-25T03:38:04;2680.67;2680.67;2680.67
72031;PMS5003;49185;42.320;23.198;2024-01-25T03:40:29;2682.00;2682.00;2682.00
72031;PMS5003;49185;42.320;23.198;2024-01-25T03:42:54;2671.00;2671.00;2671.00
72031;PMS5003;49185;42.320;23.198;2024-01-25T03:45:20;2678.00;2678.00;2678.00
72031;PMS5003;49185;42.320;23.198;2024-01-25T03:47:45;2668.00;2668.00;2668.00
72031;PMS5003;49185;42.320;23.198;2024-01-25T03:50:10;2678.00;2678.00;2678.00
72031;PMS5003;49185;42.320;23.198;2024-01-25T03:52:36;2668.00;2668.00;2668.00
72031;PMS5003;49185;42.320;23.198;2024-01-25T03:55:01;2663.67;2663.67;2663.67
72031;PMS5003;49185;42.320;23.198;2024-01-25T03:57:27;2663.67;2663.67;2663.67
72031;PMS5003;49185;42.320;23.198;2024-01-25T03:59:52;2660.00;2660.00;2660.00
72031;PMS5003;49185;42.320;23.198;2024-01-25T04:02:17;2675.00;2675.00;2675.00
72031;PMS5003;49185;42.320;23.198;2024-01-25T04:04:43;2663.67;2663.67;2663.67
72031;PMS5003;49185;42.320;23.198;2024-01-25T04:07:08;2663.67;2663.67;2663.67
72031;PMS5003;49185;42.320;23.198;2024-01-25T04:09:33;2678.00;2678.00;2678.00
72031;PMS5003;49185;42.320;23.198;2024-01-25T04:11:59;2670.00;2670.00;2670.00
72031;PMS5003;49185;42.320;23.198;2024-01-25T04:14:24;2664.67;2664.67;2664.67
72031;PMS5003;49185;42.320;23.198;2024-01-25T04:16:50;2680.67;2680.67;2680.67
72031;PMS5003;49185;42.320;23.198;2024-01-25T04:19:15;2682.00;2682.00;2682.00
72031;PMS5003;49185;42.320;23.198;2024-01-25T04:21:40;2675.00;2675.00;2675.00
72031;PMS5003;49185;42.320;23.198;2024-01-25T04:24:06;2677.00;2677.00;2677.00
72031;PMS5003;49185;42.320;23.198;2024-01-25T04:26:31;2688.33;2688.33;2688.33
72031;PMS5003;49185;42.320;23.198;2024-01-25T04:28:56;2685.00;2685.00;2685.00
72031;PMS5003;49185;42.320;23.198;2024-01-25T04:31:22;2685.00;2685.00;2685.00
72031;PMS5003;49185;42.320;23.198;2024-01-25T04:33:47;2666.67;2666.67;2666.67
72031;PMS5003;49185;42.320;23.198;2024-01-25T04:36:13;2666.67;2666.67;2666.67
72031;PMS5003;49185;42.320;23.198;2024-01-25T04:38:38;2663.67;2663.67;2663.67
72031;PMS5003;49185;42.320;23.198;2024-01-25T04:41:04;2678.00;2678.00;2678.00
72031;PMS5003;49185;42.320;23.198;2024-01-25T04:43:33;2671.00;2671.00;2671.00
72031;PMS5003;49185;42.320;23.198;2024-01-25T04:45:59;2679.00;2679.00;2679.00
72031;PMS5003;49185;42.320;23.198;2024-01-25T04:48:24;2680.67;2680.67;2680.67
72031;PMS5003;49185;42.320;23.198;2024-01-25T04:50:50;2685.00;2685.00;2685.00
72031;PMS5003;49185;42.320;23.198;2024-01-25T04:53:15;2670.00;2670.00;2670.00
72031;PMS5003;49185;42.320;23.198;2024-01-25T04:55:40;2668.00;2668.00;2668.00
72031;PMS5003;49185;42.320;23.198;2024-01-25T04:58:06;2682.00;2682.00;2682.00
72031;PMS5003;49185;42.320;23.198;2024-01-25T05:00:31;2672.33;2672.33;2672.33
72031;PMS5003;49185;42.320;23.198;2024-01-25T05:02:56;2671.00;2671.00;2671.00
72031;PMS5003;49185;42.320;23.198;2024-01-25T05:05:22;2668.00;2668.00;2668.00
72031;PMS5003;49185;42.320;23.198;2024-01-25T05:07:47;2664.67;2664.67;2664.67
72031;PMS5003;49185;42.320;23.198;2024-01-25T05:10:12;2649.67;2649.67;2649.67
72031;PMS5003;49185;42.320;23.198;2024-01-25T05:12:38;2649.67;2649.67;2649.67
72031;PMS5003;49185;42.320;23.198;2024-01-25T05:15:03;2647.67;2647.67;2647.67
72031;PMS5003;49185;42.320;23.198;2024-01-25T05:17:29;2665.00;2665.00;2665.00
72031;PMS5003;49185;42.320;23.198;2024-01-25T05:19:54;2663.67;2663.67;2663.67
72031;PMS5003;49185;42.320;23.198;2024-01-25T05:22:20;2644.00;2644.00;2644.00
72031;PMS5003;49185;42.320;23.198;2024-01-25T05:24:45;2644.00;2644.00;2644.00
72031;PMS5003;49185;42.320;23.198;2024-01-25T05:27:10;2654.00;2654.00;2654.00
72031;PMS5003;49185;42.320;23.198;2024-01-25T05:29:36;2641.00;2641.00;2641.00
72031;PMS5003;49185;42.320;23.198;2024-01-25T05:32:01;2651.00;2651.00;2651.00
72031;PMS5003;49185;42.320;23.198;2024-01-25T05:34:26;2651.00;2651.00;2651.00
72031;PMS5003;49185;42.320;23.198;2024-01-25T05:36:52;2643.00;2643.00;2643.00
72031;PMS5003;49185;42.320;23.198;2024-01-25T05:39:17;2656.67;2656.67;2656.67
72031;PMS5003;49185;42.320;23.198;2024-01-25T05:41:43;2658.00;2658.00;2658.00
72031;PMS5003;49185;42.320;23.198;2024-01-25T05:44:08;2658.00;2658.00;2658.00
72031;PMS5003;49185;42.320;23.198;2024-01-25T05:46:34;2646.67;2646.67;2646.67
72031;PMS5003;49185;42.320;23.198;2024-01-25T05:48:59;2658.00;2658.00;2658.00
72031;PMS5003;49185;42.320;23.198;2024-01-25T05:51:24;2658.00;2658.00;2658.00
72031;PMS5003;49185;42.320;23.198;2024-01-25T05:53:50;2658.00;2658.00;2658.00
72031;PMS5003;49185;42.320;23.198;2024-01-25T05:56:15;2649.67;2649.67;2649.67
72031;PMS5003;49185;42.320;23.198;2024-01-25T05:58:41;2649.67;2649.67;2649.67
72031;PMS5003;49185;42.320;23.198;2024-01-25T06:01:06;2654.00;2654.00;2654.00
72031;PMS5003;49185;42.320;23.198;2024-01-25T06:03:32;2660.00;2660.00;2660.00
72031;PMS5003;49185;42.320;23.198;2024-01-25T06:05:57;2664.67;2664.67;2664.67
72031;PMS5003;49185;42.320;23.198;2024-01-25T06:08:22;2664.67;2664.67;2664.67
72031;PMS5003;49185;42.320;23.198;2024-01-25T06:10:48;2654.00;2654.00;2654.00
72031;PMS5003;49185;42.320;23.198;2024-01-25T06:13:13;2668.00;2668.00;2668.00
72031;PMS5003;49185;42.320;23.198;2024-01-25T06:15:39;2670.00;2670.00;2670.00
72031;PMS5003;49185;42.320;23.198;2024-01-25T06:18:04;2658.00;2658.00;2658.00
72031;PMS5003;49185;42.320;23.198;2024-01-25T06:20:29;2664.67;2664.67;2664.67
72031;PMS5003;49185;42.320;23.198;2024-01-25T06:22:55;2678.00;2678.00;2678.00
72031;PMS5003;49185;42.320;23.198;2024-01-25T06:25:20;2682.00;2682.00;2682.00
72031;PMS5003;49185;42.320;23.198;2024-01-25T06:27:46;2682.00;2682.00;2682.00
72031;PMS5003;49185;42.320;23.198;2024-01-25T06:30:11;2675.00;2675.00;2675.00
72031;PMS5003;49185;42.320;23.198;2024-01-25T06:32:37;2682.00;2682.00;2682.00
72031;PMS5003;49185;42.320;23.198;2024-01-25T06:35:03;2692.00;2692.00;2692.00
72031;PMS5003;49185;42.320;23.198;2024-01-25T06:37:28;2692.50;2692.50;2692.50
72031;PMS5003;49185;42.320;23.198;2024-01-25T06:39:54;2688.33;2688.33;2688.33
72031;PMS5003;49185;42.320;23.198;2024-01-25T06:42:19;2687.00;2687.00;2687.00
72031;PMS5003;49185;42.320;23.198;2024-01-25T06:44:44;2670.00;2670.00;2670.00
72031;PMS5003;49185;42.320;23.198;2024-01-25T06:47:10;2682.00;2682.00;2682.00
72031;PMS5003;49185;42.320;23.198;2024-01-25T06:49:35;2684.00;2684.00;2684.00
72031;PMS5003;49185;42.320;23.198;2024-01-25T06:52:01;2675.00;2675.00;2675.00
72031;PMS5003;49185;42.320;23.198;2024-01-25T06:54:26;2671.00;2671.00;2671.00
72031;PMS5003;49185;42.320;23.198;2024-01-25T06:56:51;2688.33;2688.33;2688.33
72031;PMS5003;49185;42.320;23.198;2024-01-25T06:59:17;2691.00;2691.00;2691.00
72031;PMS5003;49185;42.320;23.198;2024-01-25T07:01:42;2680.67;2680.67;2680.67
72031;PMS5003;49185;42.320;23.198;2024-01-25T07:04:08;2695.33;2695.33;2695.33
72031;PMS5003;49185;42.320;23.198;2024-01-25T07:06:33;2699.00;2699.00;2699.00
72031;PMS5003;49185;42.320;23.198;2024-01-25T07:08:59;2699.00;2699.00;2699.00
72031;PMS5003;49185;42.320;23.198;2024-01-25T07:11:24;2702.33;2702.33;2702.33
72031;PMS5003;49185;42.320;23.198;2024-01-25T07:13:50;2694.00;2694.00;2694.00
72031;PMS5003;49185;42.320;23.198;2024-01-25T07:16:15;2701.50;2701.50;2701.50
72031;PMS5003;49185;42.320;23.198;2024-01-25T07:18:41;2688.33;2688.33;2688.33
72031;PMS5003;49185;42.320;23.198;2024-01-25T07:21:06;2716.33;2716.33;2716.33
72031;PMS5003;49185;42.320;23.198;2024-01-25T07:23:32;2723.33;2723.33;2723.33
72031;PMS5003;49185;42.320;23.198;2024-01-25T07:25:58;2729.50;2729.50;2729.50
72031;PMS5003;49185;42.320;23.198;2024-01-25T07:28:24;2716.33;2716.33;2716.33
72031;PMS5003;49185;42.320;23.198;2024-01-25T07:30:49;2720.33;2720.33;2720.33
72031;PMS5003;49185;42.320;23.198;2024-01-25T07:33:15;2727.33;2727.33;2727.33
72031;PMS5003;49185;42.320;23.198;2024-01-25T07:35:41;2749.50;2749.50;2749.50
72031;PMS5003;49185;42.320;23.198;2024-01-25T07:38:06;2762.00;2762.00;2762.00
72031;PMS5003;49185;42.320;23.198;2024-01-25T07:40:32;2762.33;2762.33;2762.33
72031;PMS5003;49185;42.320;23.198;2024-01-25T07:42:57;2747.33;2747.33;2747.33
72031;PMS5003;49185;42.320;23.198;2024-01-25T07:45:22;2762.33;2762.33;2762.33
72031;PMS5003;49185;42.320;23.198;2024-01-25T07:47:48;2752.67;2752.67;2752.67
72031;PMS5003;49185;42.320;23.198;2024-01-25T07:50:13;2763.67;2763.67;2763.67
72031;PMS5003;49185;42.320;23.198;2024-01-25T07:52:39;2763.67;2763.67;2763.67
72031;PMS5003;49185;42.320;23.198;2024-01-25T07:55:04;2753.67;2753.67;2753.67
72031;PMS5003;49185;42.320;23.198;2024-01-25T07:57:30;2749.50;2749.50;2749.50
72031;PMS5003;49185;42.320;23.198;2024-01-25T07:59:55;2745.33;2745.33;2745.33
72031;PMS5003;49185;42.320;23.198;2024-01-25T08:02:21;2741.67;2741.67;2741.67
72031;PMS5003;49185;42.320;23.198;2024-01-25T08:04:46;2745.33;2745.33;2745.33
72031;PMS5003;49185;42.320;23.198;2024-01-25T08:07:11;2759.67;2759.67;2759.67
72031;PMS5003;49185;42.320;23.198;2024-01-25T08:09:37;2752.67;2752.67;2752.67
72031;PMS5003;49185;42.320;23.198;2024-01-25T08:12:02;2748.67;2748.67;2748.67
72031;PMS5003;49185;42.320;23.198;2024-01-25T08:14:28;2761.00;2761.00;2761.00
72031;PMS5003;49185;42.320;23.198;2024-01-25T08:16:53;2751.33;2751.33;2751.33
72031;PMS5003;49185;42.320;23.198;2024-01-25T08:19:19;2763.67;2763.67;2763.67
72031;PMS5003;49185;42.320;23.198;2024-01-25T08:21:44;2741.67;2741.67;2741.67
72031;PMS5003;49185;42.320;23.198;2024-01-25T08:24:09;2734.33;2734.33;2734.33
72031;PMS5003;49185;42.320;23.198;2024-01-25T08:26:35;2748.67;2748.67;2748.67
72031;PMS5003;49185;42.320;23.198;2024-01-25T08:29:00;2755.33;2755.33;2755.33
72031;PMS5003;49185;42.320;23.198;2024-01-25T08:31:25;2763.67;2763.67;2763.67
72031;PMS5003;49185;42.320;23.198;2024-01-25T08:33:51;2754.00;2754.00;2754.00
72031;PMS5003;49185;42.320;23.198;2024-01-25T08:36:17;2763.67;2763.67;2763.67
72031;PMS5003;49185;42.320;23.198;2024-01-25T08:38:42;2762.50;2762.50;2762.50
72031;PMS5003;49185;42.320;23.198;2024-01-25T08:41:08;2774.67;2774.67;2774.67
72031;PMS5003;49185;42.320;23.198;2024-01-25T08:43:33;2774.67;2774.67;2774.67
72031;PMS5003;49185;42.320;23.198;2024-01-25T08:45:58;2767.33;2767.33;2767.33
72031;PMS5003;49185;42.320;23.198;2024-01-25T08:48:24;2790.00;2790.00;2790.00
72031;PMS5003;49185;42.320;23.198;2024-01-25T08:50:50;2770.67;2770.67;2770.67
72031;PMS5003;49185;42.320;23.198;2024-01-25T08:53:15;2774.67;2774.67;2774.67
72031;PMS5003;49185;42.320;23.198;2024-01-25T08:55:40;2789.67;2789.67;2789.67
72031;PMS5003;49185;42.320;23.198;2024-01-25T08:58:06;2808.00;2808.00;2808.00
72031;PMS5003;49185;42.320;23.198;2024-01-25T09:00:31;2812.00;2812.00;2812.00
72031;PMS5003;49185;42.320;23.198;2024-01-25T09:02:57;2823.67;2823.67;2823.67
72031;PMS5003;49185;42.320;23.198;2024-01-25T09:05:22;2827.00;2827.00;2827.00
72031;PMS5003;49185;42.320;23.198;2024-01-25T09:07:47;2818.67;2818.67;2818.67
72031;PMS5003;49185;42.320;23.198;2024-01-25T09:10:13;2803.33;2803.33;2803.33
72031;PMS5003;49185;42.320;23.198;2024-01-25T09:12:38;2814.67;2814.67;2814.67
72031;PMS5003;49185;42.320;23.198;2024-01-25T09:15:04;2831.00;2831.00;2831.00
72031;PMS5003;49185;42.320;23.198;2024-01-25T09:17:29;2814.50;2814.50;2814.50
72031;PMS5003;49185;42.320;23.198;2024-01-25T09:19:55;2803.33;2803.33;2803.33
72031;PMS5003;49185;42.320;23.198;2024-01-25T09:22:20;2827.00;2827.00;2827.00
72031;PMS5003;49185;42.320;23.198;2024-01-25T09:24:46;2827.00;2827.00;2827.00
72031;PMS5003;49185;42.320;23.198;2024-01-25T09:27:12;2835.50;2835.50;2835.50
72031;PMS5003;49185;42.320;23.198;2024-01-25T09:29:39;2829.50;2829.50;2829.50
72031;PMS5003;49185;42.320;23.198;2024-01-25T09:32:08;2857.00;2857.00;2857.00
72031;PMS5003;49185;42.320;23.198;2024-01-25T09:34:34;2845.50;2845.50;2845.50
72031;PMS5003;49185;42.320;23.198;2024-01-25T09:37:03;2839.50;2839.50;2839.50
72031;PMS5003;49185;42.320;23.198;2024-01-25T09:39:29;2865.00;2865.00;2865.00
72031;PMS5003;49185;42.320;23.198;2024-01-25T09:41:56;2863.00;2863.00;2863.00
72031;PMS5003;49185;42.320;23.198;2024-01-25T09:44:21;2850.33;2850.33;2850.33
72031;PMS5003;49185;42.320;23.198;2024-01-25T09:46:47;2850.33;2850.33;2850.33
72031;PMS5003;49185;42.320;23.198;2024-01-25T09:49:12;2843.00;2843.00;2843.00
72031;PMS5003;49185;42.320;23.198;2024-01-25T09:51:38;2843.00;2843.00;2843.00
72031;PMS5003;49185;42.320;23.198;2024-01-25T09:54:05;2873.00;2873.00;2873.00
72031;PMS5003;49185;42.320;23.198;2024-01-25T09:56:31;2869.00;2869.00;2869.00
72031;PMS5003;49185;42.320;23.198;2024-01-25T09:58:57;2865.00;2865.00;2865.00
72031;PMS5003;49185;42.320;23.198;2024-01-25T10:01:23;2837.50;2837.50;2837.50
72031;PMS5003;49185;42.320;23.198;2024-01-25T10:03:48;2847.00;2847.00;2847.00
72031;PMS5003;49185;42.320;23.198;2024-01-25T10:06:14;2858.33;2858.33;2858.33
72031;PMS5003;49185;42.320;23.198;2024-01-25T10:08:40;2863.00;2863.00;2863.00
72031;PMS5003;49185;42.320;23.198;2024-01-25T10:11:06;2869.00;2869.00;2869.00
72031;PMS5003;49185;42.320;23.198;2024-01-25T10:13:32;2855.00;2855.00;2855.00
72031;PMS5003;49185;42.320;23.198;2024-01-25T10:15:57;2847.00;2847.00;2847.00
72031;PMS5003;49185;42.320;23.198;2024-01-25T10:18:23;2857.00;2857.00;2857.00
72031;PMS5003;49185;42.320;23.198;2024-01-25T10:20:50;2831.50;2831.50;2831.50
72031;PMS5003;49185;42.320;23.198;2024-01-25T10:23:15;2823.67;2823.67;2823.67
72031;PMS5003;49185;42.320;23.198;2024-01-25T10:25:41;2823.67;2823.67;2823.67
72031;PMS5003;49185;42.320;23.198;2024-01-25T10:28:06;2850.33;2850.33;2850.33
72031;PMS5003;49185;42.320;23.198;2024-01-25T10:30:32;2859.00;2859.00;2859.00
72031;PMS5003;49185;42.320;23.198;2024-01-25T10:33:00;2857.00;2857.00;2857.00
72031;PMS5003;49185;42.320;23.198;2024-01-25T10:35:26;2845.50;2845.50;2845.50
72031;PMS5003;49185;42.320;23.198;2024-01-25T10:37:52;2867.00;2867.00;2867.00
72031;PMS5003;49185;42.320;23.198;2024-01-25T10:40:19;2851.00;2851.00;2851.00
72031;PMS5003;49185;42.320;23.198;2024-01-25T10:42:45;2889.00;2889.00;2889.00
72031;PMS5003;49185;42.320;23.198;2024-01-25T10:45:11;2873.00;2873.00;2873.00
72031;PMS5003;49185;42.320;23.198;2024-01-25T10:47:37;2915.00;2915.00;2915.00
72031;PMS5003;49185;42.320;23.198;2024-01-25T10:50:02;2897.00;2897.00;2897.00
72031;PMS5003;49185;42.320;23.198;2024-01-25T10:52:28;2931.50;2931.50;2931.50
72031;PMS5003;49185;42.320;23.198;2024-01-25T10:54:55;2943.50;2943.50;2943.50
72031;PMS5003;49185;42.320;23.198;2024-01-25T10:57:21;2958.50;2958.50;2958.50
72031;PMS5003;49185;42.320;23.198;2024-01-25T10:59:47;2958.50;2958.50;2958.50
72031;PMS5003;49185;42.320;23.198;2024-01-25T11:02:13;2958.33;2958.33;2958.33
72031;PMS5003;49185;42.320;23.198;2024-01-25T11:04:38;2937.33;2937.33;2937.33
72031;PMS5003;49185;42.320;23.198;2024-01-25T11:07:06;2934.67;2934.67;2934.67
72031;PMS5003;49185;42.320;23.198;2024-01-25T11:09:32;2950.50;2950.50;2950.50
72031;PMS5003;49185;42.320;23.198;2024-01-25T11:12:00;2954.50;2954.50;2954.50
72031;PMS5003;49185;42.320;23.198;2024-01-25T11:14:25;2926.67;2926.67;2926.67
72031;PMS5003;49185;42.320;23.198;2024-01-25T11:16:51;2947.67;2947.67;2947.67
72031;PMS5003;49185;42.320;23.198;2024-01-25T11:19:17;2934.67;2934.67;2934.67
72031;PMS5003;49185;42.320;23.198;2024-01-25T11:21:45;2907.00;2907.00;2907.00
72031;PMS5003;49185;42.320;23.198;2024-01-25T11:24:22;2919.00;2919.00;2919.00
72031;PMS5003;49185;42.320;23.198;2024-01-25T11:26:48;2915.00;2915.00;2915.00
72031;PMS5003;49185;42.320;23.198;2024-01-25T11:29:15;2927.50;2927.50;2927.50
72031;PMS5003;49185;42.320;23.198;2024-01-25T11:31:42;2909.00;2909.00;2909.00
72031;PMS5003;49185;42.320;23.198;2024-01-25T11:34:09;2911.00;2911.00;2911.00
72031;PMS5003;49185;42.320;23.198;2024-01-25T11:36:35;2917.00;2917.00;2917.00
72031;PMS5003;49185;42.320;23.198;2024-01-25T11:39:01;2933.33;2933.33;2933.33
72031;PMS5003;49185;42.320;23.198;2024-01-25T11:41:26;2926.67;2926.67;2926.67
72031;PMS5003;49185;42.320;23.198;2024-01-25T11:43:52;2922.67;2922.67;2922.67
72031;PMS5003;49185;42.320;23.198;2024-01-25T11:46:18;2935.50;2935.50;2935.50
72031;PMS5003;49185;42.320;23.198;2024-01-25T11:48:43;2937.33;2937.33;2937.33
72031;PMS5003;49185;42.320;23.198;2024-01-25T11:51:09;2930.67;2930.67;2930.67
72031;PMS5003;49185;42.320;23.198;2024-01-25T11:53:35;2931.50;2931.50;2931.50
72031;PMS5003;49185;42.320;23.198;2024-01-25T11:56:00;2914.33;2914.33;2914.33
72031;PMS5003;49185;42.320;23.198;2024-01-25T11:58:27;2943.50;2943.50;2943.50
72031;PMS5003;49185;42.320;23.198;2024-01-25T12:00:52;2943.00;2943.00;2943.00
72031;PMS5003;49185;42.320;23.198;2024-01-25T12:03:19;2907.00;2907.00;2907.00
72031;PMS5003;49185;42.320;23.198;2024-01-25T12:05:45;2938.67;2938.67;2938.67
72031;PMS5003;49185;42.320;23.198;2024-01-25T12:08:12;2941.50;2941.50;2941.50
72031;PMS5003;49185;42.320;23.198;2024-01-25T12:10:38;2935.50;2935.50;2935.50
72031;PMS5003;49185;42.320;23.198;2024-01-25T12:13:07;2918.67;2918.67;2918.67
72031;PMS5003;49185;42.320;23.198;2024-01-25T12:15:34;2901.00;2901.00;2901.00
72031;PMS5003;49185;42.320;23.198;2024-01-25T12:17:59;2915.00;2915.00;2915.00
72031;PMS5003;49185;42.320;23.198;2024-01-25T12:20:26;2934.67;2934.67;2934.67
72031;PMS5003;49185;42.320;23.198;2024-01-25T12:22:51;2948.00;2948.00;2948.00
72031;PMS5003;49185;42.320;23.198;2024-01-25T12:25:17;2918.67;2918.67;2918.67